Time;durP1;ratioP1;P1;durP2;ratioP2;P2;SDS_P1;SDS_P2;PMS_P1;PMS_P2;Temp;Humidity;BMP_temperature;BMP_pressure;BME280_temperature;BME280_humidity;BME280_pressure;Samples;Min_cycle;Max_cycle;Signal;HPM_P1;HPM_P2
2023/08/12 00:01:21;;;;;;;10.68;2.72;;;14.60;99.90;;;;;;5037562;28;20535;-83
2023/08/12 00:03:49;;;;;;;9.00;1.98;;;14.50;99.90;;;;;;5034787;28;20185;-83
2023/08/12 00:06:16;;;;;;;6.65;2.00;;;14.40;99.90;;;;;;5031669;28;20268;-83
2023/08/12 00:08:44;;;;;;;6.50;2.45;;;14.50;99.90;;;;;;5035961;28;20190;-83
2023/08/12 00:11:11;;;;;;;5.75;2.00;;;14.40;99.90;;;;;;5019527;28;20225;-84
2023/08/12 00:13:39;;;;;;;6.03;1.75;;;14.50;99.90;;;;;;5034636;28;20591;-82
2023/08/12 00:16:06;;;;;;;6.95;2.05;;;14.40;99.90;;;;;;5038519;28;20186;-83
2023/08/12 00:18:36;;;;;;;7.80;1.77;;;14.30;99.90;;;;;;5026248;28;20554;-82
2023/08/12 00:21:09;;;;;;;7.50;2.20;;;14.40;99.90;;;;;;5038945;28;20193;-83
2023/08/12 00:23:44;;;;;;;7.72;1.88;;;14.40;99.90;;;;;;5035551;28;20254;-82
2023/08/12 00:26:11;;;;;;;3.45;1.73;;;14.50;99.90;;;;;;5034445;28;20201;-84
2023/08/12 00:28:39;;;;;;;11.35;2.13;;;14.40;99.90;;;;;;5038384;28;20186;-82
2023/08/12 00:31:07;;;;;;;6.75;1.92;;;14.50;99.90;;;;;;5034780;28;20601;-82
2023/08/12 00:33:34;;;;;;;10.70;2.00;;;14.50;99.90;;;;;;5026987;28;20184;-84
2023/08/12 00:36:02;;;;;;;14.75;1.90;;;14.40;99.90;;;;;;5029967;28;20183;-84
2023/08/12 00:38:29;;;;;;;2.85;1.65;;;14.40;99.90;;;;;;5025292;28;20225;-84
2023/08/12 00:40:58;;;;;;;5.75;1.92;;;14.30;99.90;;;;;;5031427;28;20212;-82
2023/08/12 00:43:25;;;;;;;10.50;1.92;;;14.20;99.90;;;;;;5042612;28;20192;-82
2023/08/12 00:45:53;;;;;;;5.03;1.73;;;14.20;99.90;;;;;;5038267;28;20685;-82
2023/08/12 00:48:21;;;;;;;7.40;2.65;;;14.20;99.90;;;;;;5039464;28;20238;-82
2023/08/12 00:50:49;;;;;;;4.93;1.98;;;14.10;99.90;;;;;;5034829;28;20300;-81
2023/08/12 00:53:17;;;;;;;7.53;2.03;;;14.10;99.90;;;;;;5037971;28;20362;-84
2023/08/12 00:55:45;;;;;;;5.53;2.08;;;14.10;99.90;;;;;;5037684;28;20181;-83
2023/08/12 00:58:13;;;;;;;4.68;2.10;;;14.10;99.90;;;;;;5036388;28;20643;-84
2023/08/12 01:00:41;;;;;;;5.28;1.92;;;14.10;99.90;;;;;;5037872;28;20230;-85
2023/08/12 01:03:08;;;;;;;6.18;2.30;;;14.00;99.90;;;;;;5037057;28;20268;-82
2023/08/12 01:05:37;;;;;;;7.45;2.03;;;14.00;99.90;;;;;;5046375;28;20181;-84
2023/08/12 01:08:09;;;;;;;7.38;2.22;;;14.00;99.90;;;;;;5034786;28;20202;-82
2023/08/12 01:10:39;;;;;;;6.80;1.80;;;14.10;99.90;;;;;;5042570;28;20242;-83
2023/08/12 01:13:17;;;;;;;5.35;1.95;;;14.00;99.90;;;;;;5040366;28;20274;-82
2023/08/12 01:15:46;;;;;;;8.75;2.17;;;14.00;99.90;;;;;;5037013;28;20181;-83
2023/08/12 01:18:15;;;;;;;7.85;1.92;;;14.00;99.90;;;;;;5038502;28;20537;-82
2023/08/12 01:20:42;;;;;;;5.70;1.77;;;14.00;99.90;;;;;;5019262;28;20205;-83
2023/08/12 01:23:11;;;;;;;3.03;1.80;;;14.10;99.90;;;;;;5020077;28;20308;-83
2023/08/12 01:25:39;;;;;;;7.80;1.75;;;14.00;99.90;;;;;;5038980;28;20271;-83
2023/08/12 01:28:07;;;;;;;3.63;1.90;;;13.90;99.90;;;;;;5032978;28;20200;-84
2023/08/12 01:30:41;;;;;;;8.80;2.38;;;13.90;99.90;;;;;;5037811;28;20307;-84
2023/08/12 01:33:19;;;;;;;6.32;2.13;;;13.90;99.90;;;;;;5036489;28;20670;-83
2023/08/12 01:36:16;;;;;;;3.50;1.85;;;13.80;99.90;;;;;;5033883;28;20189;-83
2023/08/12 01:38:46;;;;;;;8.25;1.90;;;13.80;99.90;;;;;;5037430;28;20222;-82
2023/08/12 01:41:16;;;;;;;8.48;2.08;;;13.80;99.90;;;;;;5034790;28;20195;-82
2023/08/12 01:43:44;;;;;;;5.10;2.00;;;13.70;99.90;;;;;;5036342;28;20579;-82
2023/08/12 01:46:12;;;;;;;4.68;1.70;;;13.70;99.90;;;;;;5020425;28;20287;-83
2023/08/12 01:48:39;;;;;;;4.15;1.80;;;13.70;99.90;;;;;;5037085;28;20201;-82
2023/08/12 01:51:07;;;;;;;4.68;2.00;;;13.70;99.90;;;;;;5039589;28;20214;-82
2023/08/12 01:53:35;;;;;;;4.47;1.90;;;13.60;99.90;;;;;;5032630;28;20194;-83
2023/08/12 01:56:02;;;;;;;8.02;1.90;;;13.60;99.90;;;;;;5035125;28;20669;-82
2023/08/12 01:58:29;;;;;;;2.60;1.83;;;13.60;99.90;;;;;;5038221;28;20567;-84
2023/08/12 02:00:57;;;;;;;5.70;1.88;;;13.60;99.90;;;;;;5049606;28;20228;-83
2023/08/12 02:03:24;;;;;;;3.95;1.80;;;13.60;99.90;;;;;;5039489;28;20674;-83
2023/08/12 02:05:52;;;;;;;8.30;2.25;;;13.60;99.90;;;;;;5035090;28;20194;-82
2023/08/12 02:08:19;;;;;;;5.45;2.00;;;13.60;99.90;;;;;;5036196;28;20193;-83
2023/08/12 02:10:47;;;;;;;3.53;1.90;;;13.60;99.90;;;;;;5037107;28;20286;-82
2023/08/12 02:13:15;;;;;;;3.53;1.90;;;13.60;99.90;;;;;;5031225;28;20352;-84
2023/08/12 02:15:43;;;;;;;7.25;2.00;;;13.60;99.90;;;;;;5038369;28;20189;-83
2023/08/12 02:18:12;;;;;;;5.70;2.10;;;13.60;99.90;;;;;;5044470;28;20212;-83
2023/08/12 02:20:41;;;;;;;8.07;2.08;;;13.50;99.90;;;;;;5037975;28;20221;-82
2023/08/12 02:23:09;;;;;;;4.78;1.70;;;13.40;99.90;;;;;;5034075;28;20220;-83
2023/08/12 02:25:36;;;;;;;5.38;2.03;;;13.40;99.90;;;;;;5036237;28;21038;-82
2023/08/12 02:28:05;;;;;;;7.13;1.92;;;13.40;99.90;;;;;;5038800;28;20301;-83
2023/08/12 02:30:33;;;;;;;7.57;2.00;;;13.50;99.90;;;;;;5011230;28;20216;-82
2023/08/12 02:33:00;;;;;;;4.93;2.10;;;13.50;99.90;;;;;;5035549;28;20204;-82
2023/08/12 02:35:28;;;;;;;12.27;2.25;;;13.50;99.90;;;;;;5020082;28;20194;-82
2023/08/12 02:37:55;;;;;;;5.65;2.10;;;13.40;99.90;;;;;;5039118;28;20186;-83
2023/08/12 02:40:23;;;;;;;4.07;2.00;;;13.30;99.90;;;;;;5033949;28;20545;-83
2023/08/12 02:42:50;;;;;;;6.00;2.38;;;13.30;99.90;;;;;;5034010;28;20193;-82
2023/08/12 02:45:18;;;;;;;6.55;2.20;;;13.30;99.90;;;;;;5040157;28;20193;-82
2023/08/12 02:47:45;;;;;;;5.32;2.00;;;13.20;99.90;;;;;;5018627;28;20198;-83
2023/08/12 02:50:13;;;;;;;9.65;2.08;;;13.20;99.90;;;;;;5035630;28;20193;-83
2023/08/12 02:52:40;;;;;;;5.55;2.20;;;13.20;99.90;;;;;;5035493;28;20277;-83
2023/08/12 02:55:08;;;;;;;8.32;2.60;;;13.20;99.90;;;;;;5018403;28;20322;-82
2023/08/12 02:57:36;;;;;;;9.77;2.42;;;13.20;99.90;;;;;;5039835;28;20193;-82
2023/08/12 03:00:04;;;;;;;7.10;2.15;;;13.10;99.90;;;;;;5039889;28;20181;-83
2023/08/12 03:02:31;;;;;;;6.20;2.40;;;13.00;99.90;;;;;;5035650;28;20201;-83
2023/08/12 03:04:59;;;;;;;6.28;2.25;;;13.00;99.90;;;;;;5032411;28;20204;-83
2023/08/12 03:07:27;;;;;;;6.35;2.60;;;13.00;99.90;;;;;;5035837;28;20616;-83
2023/08/12 03:09:54;;;;;;;4.13;2.08;;;12.90;99.90;;;;;;5039695;28;20269;-82
2023/08/12 03:12:22;;;;;;;7.72;2.38;;;13.00;99.90;;;;;;5033862;28;20249;-82
2023/08/12 03:14:49;;;;;;;3.17;1.90;;;13.00;99.90;;;;;;5033563;28;20551;-83
2023/08/12 03:17:17;;;;;;;9.35;2.50;;;13.00;99.90;;;;;;5035339;28;20232;-82
2023/08/12 03:19:44;;;;;;;2.65;1.73;;;12.90;99.90;;;;;;5037894;28;20652;-82
2023/08/12 03:22:12;;;;;;;7.63;2.35;;;13.00;99.90;;;;;;5038427;27;20199;-81
2023/08/12 03:24:40;;;;;;;4.47;2.38;;;13.00;99.90;;;;;;5034980;28;20200;-81
2023/08/12 03:27:07;;;;;;;9.93;2.65;;;12.90;99.90;;;;;;5033358;28;20194;-83
2023/08/12 03:29:35;;;;;;;8.90;2.33;;;12.80;99.90;;;;;;5041969;28;20197;-84
2023/08/12 03:32:03;;;;;;;5.00;2.67;;;12.90;99.90;;;;;;5038828;28;20216;-82
2023/08/12 03:34:30;;;;;;;7.68;2.30;;;12.90;99.90;;;;;;5034614;28;20285;-83
2023/08/12 03:36:59;;;;;;;6.65;2.42;;;12.90;99.90;;;;;;5032317;28;20201;-83
2023/08/12 03:39:27;;;;;;;4.68;2.40;;;12.90;99.90;;;;;;5035578;28;20677;-83
2023/08/12 03:41:55;;;;;;;6.63;2.25;;;12.90;99.90;;;;;;5014498;28;20205;-82
2023/08/12 03:44:22;;;;;;;7.07;2.40;;;12.80;99.90;;;;;;5037642;28;20189;-82
2023/08/12 03:46:51;;;;;;;9.38;2.67;;;12.80;99.90;;;;;;5015165;28;20229;-82
2023/08/12 03:49:19;;;;;;;5.80;2.20;;;12.80;99.90;;;;;;5032990;28;21143;-82
2023/08/12 03:51:49;;;;;;;6.88;2.88;;;12.70;99.90;;;;;;5034374;28;20201;-82
2023/08/12 03:54:16;;;;;;;6.80;2.88;;;12.70;99.90;;;;;;5036186;28;20182;-81
2023/08/12 03:56:44;;;;;;;3.78;2.22;;;12.70;99.90;;;;;;5017648;28;20201;-81
2023/08/12 03:59:12;;;;;;;6.50;2.50;;;12.70;99.90;;;;;;5040164;28;21076;-81
2023/08/12 04:01:41;;;;;;;4.80;2.60;;;12.60;99.90;;;;;;5020777;28;20189;-82
2023/08/12 04:04:09;;;;;;;3.78;2.55;;;12.60;99.90;;;;;;4998936;28;20205;-82
2023/08/12 04:06:40;;;;;;;6.43;2.63;;;12.60;99.90;;;;;;5033365;28;20928;-82
2023/08/12 04:09:08;;;;;;;7.65;2.47;;;12.60;99.90;;;;;;5034889;28;20186;-82
2023/08/12 04:11:35;;;;;;;5.80;2.83;;;12.60;99.90;;;;;;5017565;28;20209;-82
2023/08/12 04:14:03;;;;;;;4.20;2.50;;;12.60;99.90;;;;;;5032712;28;20189;-82
2023/08/12 04:16:31;;;;;;;5.85;2.65;;;12.60;99.90;;;;;;5032488;28;20242;-81
2023/08/12 04:18:58;;;;;;;6.00;2.25;;;12.60;99.90;;;;;;5036927;28;20193;-83
2023/08/12 04:21:26;;;;;;;6.38;2.67;;;12.60;99.90;;;;;;5019530;28;20561;-82
2023/08/12 04:23:54;;;;;;;6.88;2.65;;;12.60;99.90;;;;;;5008518;28;20189;-82
2023/08/12 04:26:22;;;;;;;6.10;3.10;;;12.60;99.90;;;;;;5035563;28;20297;-82
2023/08/12 04:28:49;;;;;;;6.25;2.30;;;12.60;99.90;;;;;;5026261;28;20203;-82
2023/08/12 04:31:17;;;;;;;6.38;2.88;;;12.60;99.90;;;;;;5045197;28;20707;-83
2023/08/12 04:33:45;;;;;;;8.52;2.67;;;12.70;99.90;;;;;;5031520;28;20523;-81
2023/08/12 04:36:14;;;;;;;9.00;2.63;;;12.60;99.90;;;;;;5036259;28;20193;-82
2023/08/12 04:38:41;;;;;;;6.28;2.53;;;12.70;99.90;;;;;;5004506;28;20282;-83
2023/08/12 04:41:10;;;;;;;5.00;2.45;;;12.70;99.90;;;;;;5035751;28;20261;-81
2023/08/12 04:43:38;;;;;;;7.32;2.75;;;12.70;99.90;;;;;;5026724;28;20555;-83
2023/08/12 04:46:06;;;;;;;5.57;2.85;;;12.70;99.90;;;;;;5029517;28;20932;-82
2023/08/12 04:48:34;;;;;;;5.57;2.35;;;12.70;99.90;;;;;;5031363;28;20216;-84
2023/08/12 04:51:02;;;;;;;7.60;2.33;;;12.80;99.90;;;;;;5038437;28;20565;-83
2023/08/12 04:53:30;;;;;;;7.85;2.55;;;12.80;99.90;;;;;;5035182;28;20217;-82
2023/08/12 04:55:58;;;;;;;7.80;2.47;;;12.80;99.90;;;;;;5033477;28;20293;-82
2023/08/12 04:58:26;;;;;;;11.57;2.50;;;12.90;99.90;;;;;;5095324;28;20659;-83
2023/08/12 05:00:54;;;;;;;8.10;2.50;;;12.90;99.90;;;;;;5033201;28;20197;-84
2023/08/12 05:03:22;;;;;;;8.65;2.65;;;13.00;99.90;;;;;;5022362;28;20190;-84
2023/08/12 05:05:52;;;;;;;6.68;2.30;;;13.10;99.90;;;;;;5032066;28;20189;-83
2023/08/12 05:08:24;;;;;;;9.65;3.05;;;13.10;99.90;;;;;;5024616;28;20579;-83
2023/08/12 05:10:51;;;;;;;10.63;2.75;;;13.10;99.90;;;;;;5034532;28;20194;-83
2023/08/12 05:13:20;;;;;;;7.80;2.17;;;13.20;99.90;;;;;;5035309;28;20224;-83
2023/08/12 05:15:48;;;;;;;6.00;2.45;;;13.30;99.90;;;;;;5033266;28;20199;-83
2023/08/12 05:18:17;;;;;;;7.28;2.00;;;13.30;99.90;;;;;;5034573;28;20209;-83
2023/08/12 05:20:45;;;;;;;8.77;2.00;;;13.40;99.90;;;;;;5021934;28;20186;-84
2023/08/12 05:23:14;;;;;;;4.88;2.08;;;13.40;99.90;;;;;;5028823;28;20307;-81
2023/08/12 05:25:42;;;;;;;7.85;2.00;;;13.40;99.90;;;;;;4998961;28;20198;-82
2023/08/12 05:28:09;;;;;;;6.75;2.30;;;13.50;99.90;;;;;;5035432;28;20591;-82
2023/08/12 05:30:38;;;;;;;3.42;1.77;;;13.50;99.90;;;;;;5008291;28;20313;-82
2023/08/12 05:33:06;;;;;;;5.03;1.90;;;13.70;99.90;;;;;;5028405;28;20201;-81
2023/08/12 05:35:34;;;;;;;3.78;2.10;;;13.70;99.90;;;;;;5021926;28;20286;-84
2023/08/12 05:38:02;;;;;;;4.35;1.80;;;13.90;99.90;;;;;;5001916;28;20190;-83
2023/08/12 05:40:29;;;;;;;3.78;1.80;;;13.80;99.90;;;;;;5032731;28;20182;-83
2023/08/12 05:42:57;;;;;;;7.07;2.10;;;13.90;99.90;;;;;;5034988;28;20652;-82
2023/08/12 05:45:25;;;;;;;5.68;2.22;;;13.90;99.90;;;;;;5028191;28;20194;-83
2023/08/12 05:47:52;;;;;;;5.55;1.55;;;13.90;99.90;;;;;;5011411;28;20197;-83
2023/08/12 05:50:20;;;;;;;5.97;1.92;;;14.00;99.90;;;;;;5030551;28;20194;-83
2023/08/12 05:52:48;;;;;;;4.68;1.65;;;14.00;99.90;;;;;;5035423;28;20213;-83
2023/08/12 05:55:15;;;;;;;4.38;1.50;;;14.10;99.90;;;;;;5036043;28;20750;-84
2023/08/12 05:57:43;;;;;;;6.15;1.70;;;14.10;99.90;;;;;;5037363;28;20247;-85
2023/08/12 06:00:11;;;;;;;8.00;2.13;;;14.30;99.90;;;;;;5034657;28;20548;-85
2023/08/12 06:02:39;;;;;;;4.68;1.52;;;14.30;99.90;;;;;;5042209;28;20232;-84
2023/08/12 06:05:07;;;;;;;3.30;1.42;;;14.60;99.90;;;;;;5036759;28;20264;-84
2023/08/12 06:07:35;;;;;;;4.90;1.77;;;14.60;99.90;;;;;;5043462;28;20559;-83
2023/08/12 06:10:04;;;;;;;5.55;2.10;;;14.70;99.90;;;;;;5037213;28;20193;-83
2023/08/12 06:12:31;;;;;;;7.07;1.90;;;14.70;99.90;;;;;;5037669;28;20205;-84
2023/08/12 06:15:01;;;;;;;3.80;1.42;;;14.70;99.90;;;;;;5037557;28;20675;-83
2023/08/12 06:17:28;;;;;;;4.05;1.65;;;14.70;99.90;;;;;;5034884;28;20194;-84
2023/08/12 06:19:56;;;;;;;2.97;1.50;;;14.90;99.90;;;;;;5039185;28;20182;-84
2023/08/12 06:22:23;;;;;;;3.42;1.65;;;15.00;99.90;;;;;;5031860;28;20190;-85
2023/08/12 06:24:51;;;;;;;5.13;1.70;;;15.00;99.90;;;;;;5040158;28;20193;-85
2023/08/12 06:27:20;;;;;;;4.32;1.77;;;14.80;99.90;;;;;;5031111;28;20243;-84
2023/08/12 06:29:48;;;;;;;7.60;2.20;;;14.90;99.90;;;;;;5030064;28;20194;-85
2023/08/12 06:32:15;;;;;;;5.70;1.85;;;15.00;99.90;;;;;;5027986;28;20304;-85
2023/08/12 06:34:43;;;;;;;4.65;1.60;;;15.60;99.90;;;;;;5041334;28;20212;-86
2023/08/12 06:37:10;;;;;;;5.30;1.77;;;15.80;99.90;;;;;;5035930;28;20273;-85
2023/08/12 06:39:38;;;;;;;2.83;1.45;;;15.80;99.90;;;;;;5033592;28;20260;-84
2023/08/12 06:42:06;;;;;;;3.95;1.92;;;15.50;99.90;;;;;;5022223;28;20224;-84
2023/08/12 06:44:34;;;;;;;4.47;1.80;;;15.60;99.90;;;;;;5031121;28;20679;-87
2023/08/12 06:47:01;;;;;;;5.50;2.00;;;15.50;99.90;;;;;;5038318;28;20569;-85
2023/08/12 06:49:29;;;;;;;4.05;1.70;;;15.60;99.90;;;;;;5070281;28;20214;-87
2023/08/12 06:51:56;;;;;;;6.05;2.30;;;15.70;99.90;;;;;;5039435;28;20257;-85
2023/08/12 06:54:24;;;;;;;23.05;2.70;;;16.10;99.90;;;;;;5037152;28;20189;-87
2023/08/12 06:56:52;;;;;;;5.25;1.92;;;16.20;99.90;;;;;;5037697;28;20212;-87
2023/08/12 06:59:19;;;;;;;7.30;1.77;;;16.30;99.90;;;;;;5041280;28;20212;-85
2023/08/12 07:01:47;;;;;;;7.25;1.88;;;16.10;99.90;;;;;;5033655;28;20186;-85
2023/08/12 07:04:14;;;;;;;4.80;1.70;;;16.30;99.90;;;;;;5038417;28;20194;-84
2023/08/12 07:06:41;;;;;;;6.13;2.00;;;16.30;99.90;;;;;;5038649;28;20190;-85
2023/08/12 07:09:09;;;;;;;5.72;2.08;;;16.30;99.90;;;;;;5035212;28;20190;-85
2023/08/12 07:11:37;;;;;;;3.38;1.80;;;16.50;99.90;;;;;;5032876;28;20190;-87
2023/08/12 07:14:05;;;;;;;5.68;1.77;;;16.60;99.90;;;;;;5038135;28;20675;-85
2023/08/12 07:16:33;;;;;;;6.28;2.03;;;16.80;99.90;;;;;;5014684;28;20193;-87
2023/08/12 07:19:00;;;;;;;9.48;2.40;;;16.80;99.90;;;;;;5033893;28;20202;-86
2023/08/12 07:21:28;;;;;;;12.73;2.47;;;16.70;99.90;;;;;;5033330;28;20209;-86
2023/08/12 07:23:55;;;;;;;5.50;1.90;;;16.60;99.90;;;;;;5023867;28;20216;-84
2023/08/12 07:26:31;;;;;;;5.38;1.88;;;16.60;99.90;;;;;;5033187;28;20208;-86
2023/08/12 07:28:58;;;;;;;6.65;2.00;;;16.90;99.90;;;;;;5024223;28;20206;-86
2023/08/12 07:31:26;;;;;;;3.25;1.65;;;16.80;99.90;;;;;;5035454;28;20181;-85
2023/08/12 07:33:53;;;;;;;11.13;3.90;;;16.80;99.90;;;;;;5035215;28;20276;-87
2023/08/12 07:36:21;;;;;;;4.45;2.20;;;16.90;99.90;;;;;;5033976;28;20202;-85
2023/08/12 07:38:48;;;;;;;5.20;2.00;;;16.90;99.90;;;;;;5014513;28;20719;-87
2023/08/12 07:41:16;;;;;;;4.90;1.92;;;16.90;99.90;;;;;;5038603;28;20217;-82
2023/08/12 07:43:43;;;;;;;4.97;1.83;;;17.10;99.90;;;;;;5040024;28;20189;-87
2023/08/12 07:46:10;;;;;;;4.22;1.52;;;17.10;99.90;;;;;;5032068;28;20609;-87
2023/08/12 07:48:38;;;;;;;5.15;2.10;;;17.10;99.90;;;;;;5023860;28;20194;-83
2023/08/12 07:51:06;;;;;;;5.55;1.98;;;17.10;99.90;;;;;;5038311;28;20968;-86
2023/08/12 07:53:34;;;;;;;5.60;1.98;;;17.20;99.90;;;;;;5026840;28;20217;-80
2023/08/12 07:56:02;;;;;;;5.30;2.25;;;17.20;99.90;;;;;;5048040;28;20209;-81
2023/08/12 07:58:30;;;;;;;6.97;1.73;;;17.40;99.90;;;;;;5045740;28;20218;-80
2023/08/12 08:00:57;;;;;;;7.50;2.08;;;17.50;99.90;;;;;;5041021;28;20301;-86
2023/08/12 08:03:25;;;;;;;9.55;1.95;;;17.50;99.90;;;;;;5037172;28;20611;-85
2023/08/12 08:05:53;;;;;;;5.32;2.25;;;17.60;99.90;;;;;;5033209;28;20551;-84
2023/08/12 08:08:20;;;;;;;4.00;1.92;;;17.70;99.90;;;;;;5037310;28;20189;-85
2023/08/12 08:10:48;;;;;;;6.70;2.15;;;17.70;99.90;;;;;;5029544;28;20201;-86
2023/08/12 08:13:15;;;;;;;4.63;1.88;;;17.60;99.90;;;;;;5025182;28;20698;-86
2023/08/12 08:15:43;;;;;;;4.63;2.00;;;17.70;99.90;;;;;;5018567;28;20297;-86
2023/08/12 08:18:10;;;;;;;7.45;2.03;;;17.80;99.90;;;;;;5036759;28;20555;-83
2023/08/12 08:20:38;;;;;;;6.32;1.95;;;17.90;99.90;;;;;;5023505;28;20592;-87
2023/08/12 08:23:06;;;;;;;7.07;2.15;;;17.90;99.90;;;;;;5033583;28;20197;-85
2023/08/12 08:25:33;;;;;;;21.75;15.35;;;17.90;99.90;;;;;;5040225;28;20234;-87
2023/08/12 08:28:01;;;;;;;4.82;2.08;;;18.10;99.90;;;;;;5120113;27;20679;-88
2023/08/12 08:30:29;;;;;;;6.22;1.90;;;18.20;99.90;;;;;;5016317;28;20738;-88
2023/08/12 08:32:56;;;;;;;4.70;1.80;;;18.40;99.90;;;;;;5037391;28;20216;-86
2023/08/12 08:35:24;;;;;;;6.90;2.13;;;18.60;99.90;;;;;;5035175;28;20182;-88
2023/08/12 08:37:52;;;;;;;5.40;2.00;;;18.50;99.90;;;;;;5036234;28;20205;-86
2023/08/12 08:40:20;;;;;;;4.20;2.00;;;18.30;99.90;;;;;;5039908;28;21009;-88
2023/08/12 08:42:55;;;;;;;23.75;6.25;;;18.20;99.90;;;;;;5034945;28;20199;-89
2023/08/12 08:45:33;;;;;;;5.40;2.08;;;18.30;99.90;;;;;;5020806;28;20191;-88
2023/08/12 08:48:07;;;;;;;4.72;1.67;;;18.30;99.90;;;;;;5020303;28;20280;-88
2023/08/12 08:50:36;;;;;;;6.60;2.05;;;18.60;99.90;;;;;;5015889;28;20304;-87
2023/08/12 08:53:06;;;;;;;5.38;1.95;;;18.60;99.90;;;;;;5017980;28;20313;-86
2023/08/12 08:55:34;;;;;;;7.63;2.25;;;18.70;99.90;;;;;;5015915;28;20605;-87
2023/08/12 08:58:05;;;;;;;5.47;2.22;;;18.70;99.90;;;;;;5018986;28;20186;-89
2023/08/12 09:00:36;;;;;;;7.15;2.17;;;18.90;99.90;;;;;;5000022;28;20602;-86
2023/08/12 09:03:06;;;;;;;5.75;1.52;;;19.10;99.90;;;;;;4998947;28;20740;-87
2023/08/12 09:05:36;;;;;;;4.32;2.25;;;19.10;99.90;;;;;;5018524;28;20316;-89
2023/08/12 09:08:10;;;;;;;11.45;2.00;;;19.20;99.90;;;;;;5018433;28;20355;-87
2023/08/12 09:10:40;;;;;;;4.55;1.83;;;19.00;99.90;;;;;;5022641;28;20198;-88
2023/08/12 09:13:08;;;;;;;8.07;2.08;;;18.90;99.90;;;;;;5024737;28;20723;-88
2023/08/12 09:15:36;;;;;;;4.32;1.88;;;18.80;99.90;;;;;;5023968;28;20574;-87
2023/08/12 09:18:07;;;;;;;4.38;2.03;;;18.80;99.90;;;;;;5025792;28;20186;-88
2023/08/12 09:20:35;;;;;;;4.90;1.75;;;18.80;99.90;;;;;;5021491;28;20261;-88
2023/08/12 09:23:03;;;;;;;5.10;2.60;;;18.70;99.90;;;;;;5020062;28;20230;-85
2023/08/12 09:25:32;;;;;;;5.05;2.00;;;18.60;99.90;;;;;;5019569;28;20195;-85
2023/08/12 09:28:00;;;;;;;4.60;1.92;;;18.50;99.90;;;;;;5021338;28;20198;-87
2023/08/12 09:30:33;;;;;;;6.35;2.30;;;18.50;99.90;;;;;;5023058;28;20983;-86
2023/08/12 09:33:03;;;;;;;4.38;1.88;;;18.60;99.90;;;;;;5023658;28;20209;-85
2023/08/12 09:35:37;;;;;;;7.35;2.22;;;18.90;99.90;;;;;;5016063;28;20289;-85
2023/08/12 09:38:07;;;;;;;5.32;1.67;;;19.10;99.90;;;;;;5027079;28;20289;-84
2023/08/12 09:40:36;;;;;;;3.63;1.80;;;19.40;99.90;;;;;;5028670;28;20285;-85
2023/08/12 09:43:04;;;;;;;4.57;1.85;;;19.40;99.90;;;;;;5029226;28;20200;-86
2023/08/12 09:45:40;;;;;;;6.72;2.22;;;19.40;99.90;;;;;;5029506;28;20193;-84
2023/08/12 09:48:12;;;;;;;5.28;2.00;;;19.60;99.90;;;;;;5022421;28;20556;-84
2023/08/12 09:50:45;;;;;;;4.65;1.98;;;19.80;99.90;;;;;;5021697;28;20209;-84
2023/08/12 09:53:12;;;;;;;4.18;1.95;;;20.00;99.90;;;;;;5024236;28;20306;-86
2023/08/12 09:55:43;;;;;;;10.82;2.13;;;20.00;99.90;;;;;;5008592;28;20197;-85
2023/08/12 09:58:16;;;;;;;6.13;1.88;;;20.20;99.90;;;;;;5027367;28;20858;-84
2023/08/12 10:00:45;;;;;;;5.15;2.10;;;20.30;99.90;;;;;;5032769;28;20190;-85
2023/08/12 10:03:20;;;;;;;4.40;1.85;;;20.40;99.90;;;;;;5027351;28;20582;-86
2023/08/12 10:05:49;;;;;;;3.33;1.50;;;20.30;99.90;;;;;;5025439;28;20289;-87
2023/08/12 10:08:18;;;;;;;7.95;1.83;;;20.30;99.90;;;;;;5030217;28;20276;-86
2023/08/12 10:10:48;;;;;;;3.50;1.75;;;20.40;99.90;;;;;;5031070;28;20605;-85
2023/08/12 10:13:34;;;;;;;4.82;2.17;;;20.50;99.90;;;;;;5029467;28;20305;-85
2023/08/12 10:16:03;;;;;;;6.20;1.80;;;20.50;99.90;;;;;;5030645;28;20224;-86
2023/08/12 10:18:33;;;;;;;7.55;2.03;;;20.60;99.90;;;;;;5029922;28;20190;-85
2023/08/12 10:21:04;;;;;;;3.25;1.80;;;20.60;99.90;;;;;;5026091;28;20185;-87
2023/08/12 10:23:32;;;;;;;6.82;2.30;;;20.70;99.90;;;;;;5023268;28;20222;-87
2023/08/12 10:26:01;;;;;;;4.32;2.10;;;20.70;99.90;;;;;;5029801;28;20190;-87
2023/08/12 10:28:36;;;;;;;3.33;1.65;;;20.70;99.90;;;;;;5010663;28;20193;-87
2023/08/12 10:31:10;;;;;;;4.10;1.67;;;20.90;99.90;;;;;;5026202;28;20191;-85
2023/08/12 10:33:40;;;;;;;5.03;1.92;;;20.80;99.90;;;;;;5024556;28;20210;-84
2023/08/12 10:36:09;;;;;;;4.88;1.90;;;20.80;99.90;;;;;;5012663;28;20259;-87
2023/08/12 10:38:37;;;;;;;11.73;2.00;;;20.90;99.90;;;;;;5034724;28;20252;-87
2023/08/12 10:41:20;;;;;;;4.90;1.77;;;20.80;99.90;;;;;;5031074;28;20293;-84
2023/08/12 10:43:57;;;;;;;9.50;2.17;;;21.00;99.90;;;;;;5025315;28;20201;-85
2023/08/12 10:46:36;;;;;;;3.53;1.85;;;21.20;99.90;;;;;;5023578;28;20225;-84
2023/08/12 10:49:11;;;;;;;4.18;1.95;;;21.40;99.90;;;;;;5039155;28;20212;-86
2023/08/12 10:52:00;;;;;;;3.05;1.55;;;21.30;99.90;;;;;;5026197;28;20213;-85
2023/08/12 10:54:31;;;;;;;6.07;1.95;;;21.30;99.90;;;;;;5016635;28;20202;-84
2023/08/12 10:57:14;;;;;;;6.15;2.08;;;21.20;99.90;;;;;;5024723;28;20182;-85
2023/08/12 10:59:46;;;;;;;2.78;1.80;;;21.00;99.90;;;;;;5023737;28;20188;-84
2023/08/12 11:02:40;;;;;;;4.53;1.60;;;20.80;99.90;;;;;;5026902;28;20182;-86
2023/08/12 11:05:11;;;;;;;5.20;2.00;;;20.60;99.90;;;;;;5027256;28;20261;-86
2023/08/12 11:08:05;;;;;;;5.82;1.70;;;20.50;99.90;;;;;;5023559;28;20178;-86
2023/08/12 11:10:37;;;;;;;6.90;1.70;;;20.40;99.90;;;;;;5023570;28;20184;-86
2023/08/12 11:13:05;;;;;;;3.63;1.80;;;20.20;99.90;;;;;;5020717;28;20201;-87
2023/08/12 11:15:47;;;;;;;4.13;2.10;;;20.20;99.90;;;;;;5021650;28;22162;-85
2023/08/12 11:18:18;;;;;;;5.13;1.77;;;20.20;99.90;;;;;;5022562;28;20402;-86
2023/08/12 11:20:48;;;;;;;5.80;2.10;;;20.40;99.90;;;;;;5025255;28;20214;-84
2023/08/12 11:23:20;;;;;;;4.97;1.60;;;20.60;99.90;;;;;;5024948;28;20205;-84
2023/08/12 11:25:50;;;;;;;4.43;1.92;;;21.10;99.90;;;;;;5017386;28;20210;-85
2023/08/12 11:28:19;;;;;;;6.45;1.88;;;21.20;99.90;;;;;;5022598;28;20190;-84
2023/08/12 11:30:48;;;;;;;3.85;1.70;;;21.20;99.90;;;;;;5023031;28;20743;-83
2023/08/12 11:33:21;;;;;;;4.45;1.60;;;21.50;99.90;;;;;;5026337;28;20209;-85
2023/08/12 11:35:57;;;;;;;5.40;1.80;;;21.50;99.90;;;;;;5026696;28;20194;-85
2023/08/12 11:38:25;;;;;;;4.88;2.13;;;21.30;99.90;;;;;;5025482;28;20246;-87
2023/08/12 11:40:56;;;;;;;5.65;1.92;;;21.00;99.90;;;;;;5009035;28;20186;-87
2023/08/12 11:43:26;;;;;;;5.32;1.88;;;20.90;99.90;;;;;;5026586;28;20662;-86
2023/08/12 11:45:56;;;;;;;4.57;1.92;;;20.80;99.90;;;;;;5017627;28;20297;-86
2023/08/12 11:48:28;;;;;;;4.93;1.80;;;20.70;99.90;;;;;;5028562;28;20197;-87
2023/08/12 11:51:00;;;;;;;5.32;1.90;;;20.60;99.90;;;;;;5016503;28;20200;-84
2023/08/12 11:53:29;;;;;;;5.25;1.92;;;20.50;99.90;;;;;;5027438;28;20206;-85
2023/08/12 11:55:57;;;;;;;4.60;1.67;;;20.50;99.90;;;;;;5031107;28;20713;-87
2023/08/12 11:58:25;;;;;;;4.60;1.80;;;20.40;99.90;;;;;;5023319;28;20202;-87
2023/08/12 12:01:06;;;;;;;3.00;1.60;;;20.40;99.90;;;;;;5026173;28;20209;-85
2023/08/12 12:03:34;;;;;;;4.97;1.73;;;20.40;99.90;;;;;;5027271;28;20182;-86
2023/08/12 12:06:03;;;;;;;5.15;2.13;;;20.40;99.90;;;;;;5027312;28;20197;-86
2023/08/12 12:08:32;;;;;;;5.03;1.70;;;20.50;99.90;;;;;;5027524;28;20209;-86
2023/08/12 12:11:07;;;;;;;6.22;1.75;;;20.50;99.90;;;;;;5031654;28;20201;-87
2023/08/12 12:13:35;;;;;;;3.13;1.80;;;20.50;99.90;;;;;;5006502;28;20205;-87
2023/08/12 12:16:03;;;;;;;8.63;1.95;;;20.40;99.90;;;;;;5027356;28;20294;-87
2023/08/12 12:18:36;;;;;;;4.07;1.55;;;20.40;99.90;;;;;;5029042;28;20456;-88
2023/08/12 12:21:05;;;;;;;4.45;1.73;;;20.40;99.90;;;;;;5024179;28;20177;-88
2023/08/12 12:23:34;;;;;;;3.63;1.80;;;20.50;99.90;;;;;;5020642;28;20190;-87
2023/08/12 12:26:03;;;;;;;6.25;2.15;;;20.50;99.90;;;;;;5024275;28;20193;-86
2023/08/12 12:28:31;;;;;;;2.90;1.70;;;20.60;99.90;;;;;;5025561;28;20269;-85
2023/08/12 12:31:00;;;;;;;4.75;1.88;;;20.60;99.90;;;;;;5025661;28;20194;-87
2023/08/12 12:33:33;;;;;;;7.00;1.80;;;20.60;99.90;;;;;;5025909;28;20259;-87
2023/08/12 12:36:00;;;;;;;7.00;2.22;;;20.50;99.90;;;;;;5011553;28;20224;-86
2023/08/12 12:38:32;;;;;;;4.57;1.85;;;20.50;99.90;;;;;;5026926;28;20220;-86
2023/08/12 12:41:02;;;;;;;5.88;2.05;;;20.70;99.90;;;;;;5022512;28;20244;-87
2023/08/12 12:43:30;;;;;;;4.00;1.98;;;21.20;99.90;;;;;;5023225;28;20941;-85
2023/08/12 12:45:57;;;;;;;5.32;1.88;;;21.20;99.90;;;;;;5041715;28;20197;-86
2023/08/12 12:48:26;;;;;;;6.38;2.00;;;21.00;99.90;;;;;;5012750;28;21156;-87
2023/08/12 12:50:55;;;;;;;4.63;2.10;;;21.00;99.90;;;;;;5025550;28;20209;-85
2023/08/12 12:53:24;;;;;;;5.05;1.88;;;20.80;99.90;;;;;;5008165;28;20217;-87
2023/08/12 12:55:52;;;;;;;3.45;1.48;;;20.70;99.90;;;;;;5029398;28;20723;-86